createdAt,value
2018-07-31T00:02:21.559Z,24.30
2018-07-31T00:04:51.473Z,24.20
2018-07-31T00:07:20.455Z,24.20
2018-07-31T00:09:49.401Z,24.10
2018-07-31T00:12:18.584Z,24.10
2018-07-31T00:14:47.649Z,24.00
2018-07-31T00:17:16.817Z,24.10
2018-07-31T00:19:46.033Z,24.10
2018-07-31T00:22:15.301Z,24.20
2018-07-31T00:24:44.709Z,24.20
2018-07-31T00:27:13.818Z,24.30
2018-07-31T00:29:42.808Z,24.30
2018-07-31T00:32:12.127Z,24.30
2018-07-31T00:34:41.227Z,24.30
2018-07-31T00:37:10.288Z,24.30
2018-07-31T00:39:39.577Z,24.30
2018-07-31T00:42:08.605Z,24.40
2018-07-31T00:44:37.655Z,24.50
2018-07-31T00:47:06.855Z,24.50
2018-07-31T00:49:36.344Z,24.50
2018-07-31T00:52:05.465Z,24.50
2018-07-31T00:54:34.541Z,24.50
2018-07-31T00:57:03.697Z,24.50
2018-07-31T00:59:32.749Z,24.40
2018-07-31T01:02:01.838Z,24.40
2018-07-31T01:04:30.850Z,24.40
2018-07-31T01:06:59.721Z,24.30
2018-07-31T01:09:28.681Z,24.30
2018-07-31T01:11:57.812Z,24.20
2018-07-31T01:14:26.815Z,24.20
2018-07-31T01:16:56.006Z,24.10
2018-07-31T01:19:25.107Z,24.10
2018-07-31T01:21:54.201Z,24.10
2018-07-31T01:24:23.181Z,24.00
2018-07-31T01:26:52.529Z,24.00
2018-07-31T01:29:21.473Z,23.90
2018-07-31T01:31:50.433Z,23.90
2018-07-31T01:34:20.082Z,23.90
2018-07-31T01:36:49.028Z,23.90
2018-07-31T01:39:18.106Z,23.80
2018-07-31T01:41:47.224Z,23.80
2018-07-31T01:44:16.139Z,23.70
2018-07-31T01:46:45.351Z,23.70
2018-07-31T01:49:14.413Z,23.60
2018-07-31T01:51:43.545Z,23.60
2018-07-31T01:54:12.585Z,23.60
2018-07-31T01:56:41.594Z,23.60
2018-07-31T01:59:10.624Z,23.50
2018-07-31T02:01:39.663Z,23.50
2018-07-31T02:04:08.589Z,23.50
2018-07-31T02:06:37.556Z,23.40
2018-07-31T02:09:08.004Z,23.40
2018-07-31T02:11:37.300Z,23.40
2018-07-31T02:14:06.390Z,23.40
2018-07-31T02:16:35.578Z,23.40
2018-07-31T02:19:04.622Z,23.50
2018-07-31T02:21:33.773Z,23.50
2018-07-31T02:24:02.877Z,23.60
2018-07-31T02:26:31.838Z,23.60
2018-07-31T02:29:01.120Z,23.70
2018-07-31T02:31:30.204Z,23.70
2018-07-31T02:33:59.239Z,23.60
2018-07-31T02:36:28.462Z,23.60
2018-07-31T02:38:57.658Z,23.50
2018-07-31T02:41:27.065Z,23.50
2018-07-31T02:43:56.116Z,23.50
2018-07-31T02:46:25.221Z,23.40
2018-07-31T02:48:55.368Z,23.40
2018-07-31T02:51:24.670Z,23.30
2018-07-31T02:53:53.620Z,23.30
2018-07-31T02:56:22.815Z,23.30
2018-07-31T02:58:52.050Z,23.40
2018-07-31T03:01:21.330Z,23.40
2018-07-31T03:03:50.545Z,23.40
2018-07-31T03:06:19.727Z,23.30
2018-07-31T03:08:48.909Z,23.20
2018-07-31T03:11:18.536Z,23.10
2018-07-31T03:13:47.701Z,23.00
2018-07-31T03:16:16.901Z,22.90
2018-07-31T03:18:45.897Z,22.70
2018-07-31T03:21:14.886Z,22.60
2018-07-31T03:23:44.138Z,22.50
2018-07-31T03:26:13.023Z,22.40
2018-07-31T03:28:42.188Z,22.20
2018-07-31T03:31:11.301Z,22.20
2018-07-31T03:33:40.458Z,22.10
2018-07-31T03:36:10.091Z,22.00
2018-07-31T03:38:39.269Z,22.00
2018-07-31T03:41:08.444Z,22.00
2018-07-31T03:43:37.617Z,21.90
2018-07-31T03:46:06.750Z,21.90
2018-07-31T03:48:36.085Z,21.90
2018-07-31T03:51:05.032Z,21.90
2018-07-31T03:53:34.020Z,21.80
2018-07-31T03:56:02.931Z,21.80
2018-07-31T03:58:32.017Z,21.70
2018-07-31T04:01:01.153Z,21.70
2018-07-31T04:03:30.436Z,21.70
2018-07-31T04:05:59.502Z,21.60
2018-07-31T04:08:28.641Z,21.60
2018-07-31T04:10:57.602Z,21.60
2018-07-31T04:13:26.801Z,21.70
2018-07-31T04:15:55.874Z,21.70
2018-07-31T04:18:24.863Z,21.80
2018-07-31T04:20:53.993Z,21.80
2018-07-31T04:23:23.100Z,21.80
2018-07-31T04:25:52.062Z,21.80
2018-07-31T04:28:21.033Z,21.80
2018-07-31T04:30:50.149Z,22.00
2018-07-31T04:33:19.215Z,22.10
2018-07-31T04:35:48.356Z,22.30
2018-07-31T04:38:17.546Z,22.60
2018-07-31T04:40:46.509Z,23.20
2018-07-31T04:43:15.615Z,23.80
2018-07-31T04:45:44.902Z,24.40
2018-07-31T04:48:13.915Z,25.00
2018-07-31T04:50:42.878Z,25.70
2018-07-31T04:53:11.903Z,26.30
2018-07-31T04:55:41.017Z,26.80
2018-07-31T04:58:10.117Z,27.30
2018-07-31T05:00:39.159Z,27.70
2018-07-31T05:03:08.284Z,28.00
2018-07-31T05:05:37.478Z,27.80
2018-07-31T05:08:06.667Z,27.60
2018-07-31T05:10:36.083Z,27.60
2018-07-31T05:13:05.246Z,27.60
2018-07-31T05:15:34.433Z,27.30
2018-07-31T05:18:03.640Z,26.80
2018-07-31T05:20:32.623Z,26.60
2018-07-31T05:23:01.752Z,26.40
2018-07-31T05:25:30.713Z,26.10
2018-07-31T05:27:59.705Z,25.80
2018-07-31T05:30:28.722Z,26.00
2018-07-31T05:32:57.898Z,25.90
2018-07-31T05:35:33.157Z,26.00
2018-07-31T05:38:02.330Z,26.00
2018-07-31T05:40:31.514Z,26.00
2018-07-31T05:43:00.519Z,26.60
2018-07-31T05:45:29.823Z,27.40
2018-07-31T05:47:58.922Z,28.30
2018-07-31T05:50:28.021Z,29.20
2018-07-31T05:52:57.096Z,30.10
2018-07-31T05:55:26.115Z,31.00
2018-07-31T05:57:55.086Z,31.80
2018-07-31T06:00:24.294Z,32.60
2018-07-31T06:02:53.296Z,33.40
2018-07-31T06:05:22.148Z,34.00
2018-07-31T06:07:51.135Z,34.10
2018-07-31T06:10:20.164Z,33.70
2018-07-31T06:12:49.258Z,33.60
2018-07-31T06:15:18.838Z,33.90
2018-07-31T06:17:47.937Z,34.30
2018-07-31T06:20:17.443Z,34.70
2018-07-31T06:22:47.832Z,34.70
2018-07-31T06:25:16.775Z,34.20
2018-07-31T06:27:45.955Z,33.60
2018-07-31T06:30:15.534Z,32.90
2018-07-31T06:32:44.980Z,32.20
2018-07-31T06:35:13.961Z,31.60
2018-07-31T06:37:43.208Z,31.10
2018-07-31T06:40:12.145Z,30.60
2018-07-31T06:42:41.621Z,30.00
2018-07-31T06:45:10.789Z,29.70
2018-07-31T06:47:39.900Z,29.50
2018-07-31T06:50:08.953Z,29.10
2018-07-31T06:52:38.148Z,29.00
2018-07-31T06:55:07.628Z,28.70
2018-07-31T06:57:36.745Z,28.60
2018-07-31T07:00:06.341Z,28.60
2018-07-31T07:02:35.544Z,28.80
2018-07-31T07:05:04.730Z,29.30
2018-07-31T07:07:33.719Z,29.70
2018-07-31T07:10:02.678Z,30.00
2018-07-31T07:12:31.909Z,30.40
2018-07-31T07:15:01.066Z,30.70
2018-07-31T07:17:30.236Z,31.00
2018-07-31T07:19:59.402Z,31.00
2018-07-31T07:22:28.715Z,30.80
2018-07-31T07:24:57.858Z,30.70
2018-07-31T07:27:27.006Z,30.80
2018-07-31T07:29:56.053Z,31.00
2018-07-31T07:32:25.341Z,31.40
2018-07-31T07:34:54.509Z,31.80
2018-07-31T07:37:23.854Z,32.00
2018-07-31T07:39:53.121Z,32.30
2018-07-31T07:42:22.596Z,32.70
2018-07-31T07:44:52.184Z,33.20
2018-07-31T07:47:21.140Z,33.50
2018-07-31T07:49:50.246Z,33.90
2018-07-31T07:52:19.524Z,34.30
2018-07-31T07:54:48.537Z,34.50
2018-07-31T07:57:17.653Z,34.60
2018-07-31T07:59:46.769Z,34.70
2018-07-31T08:02:16.025Z,34.80
2018-07-31T08:04:45.098Z,34.70
2018-07-31T08:07:14.123Z,34.80
2018-07-31T08:09:43.146Z,35.10
2018-07-31T08:14:41.419Z,36.60
2018-07-31T08:17:10.477Z,37.40
2018-07-31T08:19:39.622Z,37.90
2018-07-31T08:22:08.656Z,37.70
2018-07-31T08:24:37.910Z,37.50
2018-07-31T08:27:07.366Z,37.50
2018-07-31T08:29:36.459Z,37.60
2018-07-31T08:32:05.776Z,37.60
2018-07-31T08:34:34.981Z,37.30
2018-07-31T08:37:04.011Z,37.50
2018-07-31T08:39:33.241Z,37.40
2018-07-31T08:42:02.352Z,37.00
2018-07-31T08:44:31.591Z,37.00
2018-07-31T08:47:01.422Z,37.50
2018-07-31T08:49:31.048Z,38.20
2018-07-31T08:52:00.410Z,38.80
2018-07-31T08:54:29.663Z,39.00
2018-07-31T08:56:59.145Z,39.10
2018-07-31T08:59:28.343Z,39.50
2018-07-31T09:01:57.940Z,39.70
2018-07-31T09:04:27.067Z,39.80
2018-07-31T09:06:56.217Z,40.50
2018-07-31T09:09:25.769Z,41.20
2018-07-31T09:11:54.993Z,42.00
2018-07-31T09:14:24.141Z,42.50
2018-07-31T09:16:53.127Z,43.10
2018-07-31T09:19:22.205Z,44.00
2018-07-31T09:21:51.238Z,44.60
2018-07-31T09:24:20.346Z,44.90
2018-07-31T09:26:49.441Z,45.30
2018-07-31T09:29:18.441Z,45.30
2018-07-31T09:31:47.757Z,45.20
2018-07-31T09:34:17.229Z,45.40
2018-07-31T09:36:46.531Z,45.90
2018-07-31T09:39:16.064Z,46.20
2018-07-31T09:41:45.130Z,45.90
2018-07-31T09:44:14.110Z,45.60
2018-07-31T09:46:43.202Z,44.40
2018-07-31T09:49:12.579Z,44.00
2018-07-31T09:51:41.566Z,43.50
2018-07-31T09:54:10.634Z,43.10
2018-07-31T09:56:39.892Z,42.30
2018-07-31T09:59:08.856Z,42.30
2018-07-31T10:01:37.925Z,41.90
2018-07-31T10:04:06.951Z,41.70
2018-07-31T10:06:36.154Z,42.30
2018-07-31T10:09:08.478Z,42.90
2018-07-31T10:11:37.710Z,43.20
2018-07-31T10:14:06.693Z,43.20
2018-07-31T10:16:35.909Z,43.00
2018-07-31T10:19:05.457Z,43.30
2018-07-31T10:21:34.482Z,43.50
2018-07-31T10:24:04.333Z,44.00
2018-07-31T10:26:33.438Z,44.60
2018-07-31T10:29:02.645Z,45.00
2018-07-31T10:31:32.103Z,44.90
2018-07-31T10:34:01.396Z,44.30
2018-07-31T10:36:30.748Z,44.00
2018-07-31T10:39:00.029Z,43.80
2018-07-31T10:41:29.080Z,43.60
2018-07-31T10:43:58.099Z,42.90
2018-07-31T10:46:27.220Z,42.50
2018-07-31T10:48:56.552Z,42.20
2018-07-31T10:51:25.684Z,42.50
2018-07-31T10:53:54.787Z,42.60
2018-07-31T10:56:23.916Z,42.70
2018-07-31T11:01:21.413Z,44.10
2018-07-31T11:03:50.595Z,44.70
2018-07-31T11:06:19.718Z,44.60
2018-07-31T11:08:48.730Z,44.50
2018-07-31T11:11:17.841Z,44.00
2018-07-31T11:13:47.264Z,43.80
2018-07-31T11:16:16.327Z,43.10
2018-07-31T11:18:45.445Z,41.90
2018-07-31T11:21:14.539Z,41.50
2018-07-31T11:23:43.602Z,40.40
2018-07-31T11:26:12.677Z,39.40
2018-07-31T11:28:41.933Z,38.70
2018-07-31T11:31:11.008Z,38.10
2018-07-31T11:33:40.044Z,37.70
2018-07-31T11:36:09.094Z,37.30
2018-07-31T11:38:38.170Z,37.40
2018-07-31T11:41:07.236Z,37.40
2018-07-31T11:43:36.646Z,37.40
2018-07-31T11:46:05.883Z,37.50
2018-07-31T11:48:35.028Z,37.40
2018-07-31T11:51:04.180Z,37.30
2018-07-31T11:56:01.785Z,37.20
2018-07-31T11:58:30.964Z,36.90
2018-07-31T12:01:00.038Z,36.60
2018-07-31T12:03:29.103Z,36.50
2018-07-31T12:05:58.425Z,36.50
2018-07-31T12:08:27.627Z,36.30
2018-07-31T12:10:56.902Z,36.40
2018-07-31T12:13:25.942Z,36.40
2018-07-31T12:15:55.036Z,36.30
2018-07-31T12:18:24.373Z,36.30
2018-07-31T12:20:53.986Z,36.40
2018-07-31T12:23:23.699Z,36.40
2018-07-31T12:25:52.659Z,36.40
2018-07-31T12:28:23.468Z,36.10
2018-07-31T12:30:52.961Z,36.20
2018-07-31T12:33:22.492Z,36.20
2018-07-31T12:35:52.516Z,36.30
2018-07-31T12:38:22.078Z,36.40
2018-07-31T12:40:51.157Z,36.50
2018-07-31T12:43:20.215Z,36.40
2018-07-31T12:45:49.285Z,36.20
2018-07-31T12:48:18.288Z,35.90
2018-07-31T12:50:47.402Z,35.70
2018-07-31T12:53:16.751Z,35.60
2018-07-31T12:55:45.922Z,35.60
2018-07-31T12:58:14.956Z,35.80
2018-07-31T13:00:44.211Z,35.80
2018-07-31T13:03:13.258Z,35.60
2018-07-31T13:05:42.634Z,35.80
2018-07-31T13:08:11.781Z,35.60
2018-07-31T13:10:40.857Z,35.30
2018-07-31T13:13:09.899Z,35.40
2018-07-31T13:15:39.218Z,35.30
2018-07-31T13:20:37.169Z,35.30
2018-07-31T13:23:06.246Z,35.40
2018-07-31T13:38:35.047Z,35.40
2018-07-31T13:41:04.119Z,35.40
2018-07-31T13:43:33.185Z,34.80
2018-07-31T13:46:02.350Z,34.80
2018-07-31T13:48:31.404Z,34.90
2018-07-31T13:51:00.604Z,34.90
2018-07-31T13:53:29.684Z,35.00
2018-07-31T13:55:58.902Z,35.00
2018-07-31T13:58:28.237Z,35.20
2018-07-31T14:00:57.490Z,35.10
2018-07-31T14:03:26.400Z,35.20
2018-07-31T14:05:55.549Z,35.10
2018-07-31T14:08:24.629Z,34.80
2018-07-31T14:10:53.851Z,34.70
2018-07-31T14:13:23.123Z,34.60
2018-07-31T14:15:52.339Z,34.30
2018-07-31T14:18:21.558Z,34.40
2018-07-31T14:20:50.941Z,34.40
2018-07-31T14:23:20.977Z,34.40
2018-07-31T14:25:50.150Z,34.40
2018-07-31T14:28:19.593Z,34.40
2018-07-31T14:30:48.960Z,34.20
2018-07-31T14:33:18.181Z,34.10
2018-07-31T14:35:47.186Z,34.10
2018-07-31T14:38:16.543Z,34.20
2018-07-31T14:43:14.637Z,34.20
2018-07-31T14:45:44.420Z,33.90
2018-07-31T14:48:13.933Z,33.90
2018-07-31T14:50:43.236Z,34.00
2018-07-31T14:53:12.727Z,33.90
2018-07-31T14:55:42.076Z,33.90
2018-07-31T14:58:11.242Z,33.90
2018-07-31T15:00:40.440Z,34.10
2018-07-31T15:03:09.803Z,34.20
2018-07-31T15:05:39.011Z,34.40
2018-07-31T15:08:08.104Z,34.50
2018-07-31T15:10:37.168Z,34.40
2018-07-31T15:13:06.192Z,34.40
2018-07-31T15:15:35.419Z,34.30
2018-07-31T15:18:04.613Z,34.20
2018-07-31T15:20:33.609Z,34.20
2018-07-31T15:23:02.976Z,33.90
2018-07-31T15:25:32.641Z,33.80
2018-07-31T15:28:01.882Z,33.60
2018-07-31T15:30:32.560Z,33.60
2018-07-31T15:33:01.928Z,33.80
2018-07-31T15:35:31.256Z,33.80
2018-07-31T15:38:02.005Z,33.80
2018-07-31T15:40:31.271Z,33.80
2018-07-31T15:43:00.261Z,33.90
2018-07-31T15:45:29.669Z,34.00
2018-07-31T15:47:58.923Z,34.00
2018-07-31T15:50:28.641Z,34.20
2018-07-31T15:52:57.922Z,34.10
2018-07-31T15:55:27.062Z,33.80
2018-07-31T15:57:56.370Z,33.80
2018-07-31T16:00:25.592Z,33.70
2018-07-31T16:02:54.971Z,33.60
2018-07-31T16:05:24.643Z,33.60
2018-07-31T16:07:53.779Z,33.50
2018-07-31T16:10:23.061Z,33.40
2018-07-31T16:12:52.478Z,33.40
2018-07-31T16:15:21.551Z,33.40
2018-07-31T16:17:50.598Z,33.30
2018-07-31T16:20:19.997Z,33.50
2018-07-31T16:22:49.367Z,33.70
2018-07-31T16:25:18.472Z,33.60
2018-07-31T16:27:47.984Z,33.50
2018-07-31T16:30:17.236Z,33.40
2018-07-31T16:32:46.326Z,33.30
2018-07-31T16:35:15.410Z,33.30
2018-07-31T16:37:44.501Z,33.30
2018-07-31T16:40:13.611Z,33.30
2018-07-31T16:42:43.086Z,33.30
2018-07-31T16:45:12.601Z,33.20
2018-07-31T16:47:41.706Z,33.10
2018-07-31T16:50:11.018Z,33.00
2018-07-31T16:52:40.306Z,33.00
2018-07-31T16:55:09.504Z,33.10
2018-07-31T16:57:38.943Z,33.30
2018-07-31T17:02:37.105Z,33.70
2018-07-31T17:05:06.202Z,33.70
2018-07-31T17:07:35.385Z,33.80
2018-07-31T17:10:04.626Z,33.80
2018-07-31T17:12:33.707Z,33.90
2018-07-31T17:15:03.069Z,33.70
2018-07-31T17:17:32.180Z,33.60
2018-07-31T17:20:01.300Z,33.50
2018-07-31T17:22:30.461Z,33.30
2018-07-31T17:24:59.794Z,33.10
2018-07-31T17:27:28.905Z,32.90
2018-07-31T17:29:58.165Z,32.70
2018-07-31T17:32:27.254Z,32.40
2018-07-31T17:34:56.459Z,32.00
2018-07-31T17:37:25.765Z,31.90
2018-07-31T17:39:55.148Z,31.70
2018-07-31T17:42:25.067Z,31.60
2018-07-31T17:44:54.148Z,31.50
2018-07-31T17:47:23.279Z,31.40
2018-07-31T17:49:52.347Z,31.30
2018-07-31T17:52:21.597Z,31.20
2018-07-31T17:54:51.030Z,31.10
2018-07-31T17:57:20.250Z,31.00
2018-07-31T17:59:49.600Z,30.90
2018-07-31T18:02:18.865Z,30.90
2018-07-31T18:04:47.787Z,30.80
2018-07-31T18:07:17.064Z,30.70
2018-07-31T18:09:46.333Z,30.70
2018-07-31T18:12:15.608Z,30.50
2018-07-31T18:14:45.135Z,30.50
2018-07-31T18:17:14.709Z,30.30
2018-07-31T18:19:43.796Z,30.20
2018-07-31T18:22:13.618Z,30.10
2018-07-31T18:24:42.994Z,29.90
2018-07-31T18:27:12.651Z,29.80
2018-07-31T18:29:42.079Z,29.70
2018-07-31T18:32:11.161Z,29.60
2018-07-31T18:34:40.422Z,29.50
2018-07-31T18:37:09.552Z,29.40
2018-07-31T18:39:38.594Z,29.30
2018-07-31T18:42:07.686Z,29.20
2018-07-31T18:44:37.225Z,29.10
2018-07-31T18:47:06.745Z,29.00
2018-07-31T18:49:35.928Z,28.90
2018-07-31T18:52:05.144Z,28.80
2018-07-31T18:54:34.313Z,28.70
2018-07-31T18:57:03.617Z,28.70
2018-07-31T18:59:32.615Z,28.50
2018-07-31T19:02:01.719Z,28.50
2018-07-31T19:04:31.007Z,28.30
2018-07-31T19:07:00.200Z,28.30
2018-07-31T19:09:29.640Z,28.20
2018-07-31T19:11:59.222Z,28.10
2018-07-31T19:14:28.337Z,28.10
2018-07-31T19:16:57.388Z,27.90
2018-07-31T19:19:26.609Z,27.90
2018-07-31T19:21:55.762Z,27.80
2018-07-31T19:24:24.775Z,27.70
2018-07-31T19:26:53.860Z,27.60
2018-07-31T19:29:23.156Z,27.50
2018-07-31T19:31:52.142Z,27.40
2018-07-31T19:34:21.239Z,27.30
2018-07-31T19:36:50.438Z,27.30
2018-07-31T19:39:19.693Z,27.20
2018-07-31T19:41:49.549Z,27.10
2018-07-31T19:44:18.805Z,27.10
2018-07-31T19:46:48.074Z,27.00
2018-07-31T19:49:17.246Z,26.90
2018-07-31T19:51:46.416Z,26.90
2018-07-31T19:54:15.745Z,26.80
2018-07-31T19:56:45.029Z,26.70
2018-07-31T19:59:14.142Z,26.70
2018-07-31T20:01:43.337Z,26.70
2018-07-31T20:04:13.149Z,26.60
2018-07-31T20:06:42.281Z,26.50
2018-07-31T20:14:13.383Z,26.30
2018-07-31T20:16:42.660Z,26.30
2018-07-31T20:19:12.033Z,26.20
2018-07-31T20:21:41.393Z,26.10
2018-07-31T20:24:11.005Z,26.10
2018-07-31T20:26:40.572Z,26.00
2018-07-31T20:29:10.038Z,26.00
2018-07-31T20:31:39.941Z,26.00
2018-07-31T20:34:09.243Z,26.00
2018-07-31T20:36:38.753Z,26.00
2018-07-31T20:39:09.491Z,25.90
2018-07-31T20:41:39.393Z,25.90
2018-07-31T20:44:09.365Z,25.90
2018-07-31T20:46:38.690Z,25.90
2018-07-31T20:49:08.193Z,25.80
2018-07-31T20:51:37.400Z,25.80
2018-07-31T21:07:06.101Z,25.80
2018-07-31T21:09:35.371Z,25.70
2018-07-31T21:12:04.474Z,25.20
2018-07-31T21:14:33.663Z,25.10
2018-07-31T21:17:03.633Z,25.10
2018-07-31T21:19:32.937Z,25.10
2018-07-31T21:22:02.170Z,25.10
2018-07-31T21:24:31.782Z,25.10
2018-07-31T21:27:00.751Z,25.10
2018-07-31T21:29:30.113Z,25.10
2018-07-31T21:31:59.452Z,25.10
2018-07-31T21:34:28.495Z,25.00
2018-07-31T21:36:57.541Z,25.00
2018-07-31T21:52:30.932Z,25.00
2018-07-31T21:54:59.957Z,25.00
2018-07-31T21:57:28.898Z,24.50
2018-07-31T21:59:58.907Z,24.40
2018-07-31T22:02:28.019Z,24.40
2018-07-31T22:04:56.985Z,24.40
2018-07-31T22:07:26.264Z,24.40
2018-07-31T22:09:55.809Z,24.40
2018-07-31T22:12:25.175Z,24.40
2018-07-31T22:14:54.592Z,24.40
2018-07-31T22:17:23.783Z,24.40
2018-07-31T22:19:53.023Z,24.40
2018-07-31T22:22:22.135Z,24.30
2018-07-31T22:24:51.370Z,24.30
2018-07-31T22:27:20.613Z,24.30
2018-07-31T22:29:49.574Z,24.20
2018-07-31T22:32:19.172Z,24.10
2018-07-31T22:34:48.702Z,24.10
2018-07-31T22:37:18.175Z,24.10
2018-07-31T22:42:22.160Z,24.00
2018-07-31T22:44:51.323Z,24.00
2018-07-31T22:47:20.637Z,23.90
2018-07-31T22:49:49.838Z,23.90
2018-07-31T22:52:18.876Z,23.80
2018-07-31T22:54:47.973Z,23.80
2018-07-31T22:57:17.185Z,23.80
2018-07-31T22:59:46.131Z,23.70
2018-07-31T23:02:15.538Z,23.70
2018-07-31T23:04:44.480Z,23.60
2018-07-31T23:07:13.458Z,23.60
2018-07-31T23:09:43.099Z,23.50
2018-07-31T23:12:12.361Z,23.50
2018-07-31T23:14:41.357Z,23.50
2018-07-31T23:17:10.577Z,23.40
2018-07-31T23:19:39.599Z,23.40
2018-07-31T23:22:08.751Z,23.40
2018-07-31T23:24:37.960Z,23.40
2018-07-31T23:29:36.658Z,23.30
2018-07-31T23:32:05.874Z,23.30
2018-07-31T23:34:35.231Z,23.20
2018-07-31T23:37:04.201Z,23.20
2018-07-31T23:39:33.328Z,23.20
2018-07-31T23:42:02.395Z,23.20
2018-07-31T23:44:31.612Z,23.20
2018-07-31T23:47:00.611Z,23.10
2018-07-31T23:49:29.757Z,23.10
2018-07-31T23:51:58.957Z,23.10
2018-07-31T23:54:28.378Z,23.00
2018-07-31T23:56:58.343Z,22.90
2018-07-31T23:59:27.480Z,22.80
